KSHV/SHV METAR and TAF weather

Enter ICAO airport designator
Station Type Date Time Source
KSHV METAR 2019/04/21 21:56 UTC NOAA

KSHV 212156Z 16011KT 10SM CLR 27/12 A3001 RMK AO2 SLP158 T02670117


Station Type Date Time Source
KSHV Decoded METAR 2019/04/21 21:56 UTC NOAA

SHREVEPORT REGIONAL AIRPORT, LA, United States (KSHV) 32-27N 93-50W 80M
Apr 21, 2019 - 05:56 PM EDT / 2019.04.21 2156 UTC
Wind: from the SSE (160 degrees) at 13 MPH (11 KT):0
Visibility: 10 mile(s):0
Sky conditions: clear
Temperature: 80.1 F (26.7 C)
Dew Point: 53.1 F (11.7 C)
Relative Humidity: 39%
Pressure (altimeter): 30.01 in. Hg (1016 hPa)
ob: KSHV 212156Z 16011KT 10SM CLR 27/12 A3001 RMK AO2 SLP158 T02670117
cycle: 22

Station Type Date Time Source
KSHV TAF 2019/04/21 18:30 UTC NOAA

TAF KSHV 211728Z 2118/2218 18013G21KT P6SM SKC
FM220000 17009KT P6SM SCT180
FM221000 16006KT P6SM BKN012
FM221400 17012G20KT P6SM SCT035

Example: see airport list